createdAt,value
2023-01-29T00:02:09.978Z,14.90
2023-01-29T00:05:16.725Z,15.00
2023-01-29T00:08:15.117Z,15.80
2023-01-29T00:11:10.236Z,15.80
2023-01-29T00:14:03.382Z,15.90
2023-01-29T00:16:56.447Z,14.90
2023-01-29T00:19:49.339Z,16.80
2023-01-29T00:22:42.113Z,14.70
2023-01-29T00:25:34.927Z,14.70
2023-01-29T00:28:26.397Z,14.20
2023-01-29T00:31:22.170Z,13.80
2023-01-29T00:34:15.072Z,13.00
2023-01-29T00:37:09.732Z,11.80
2023-01-29T00:40:02.550Z,10.90
2023-01-29T00:43:06.223Z,13.00
2023-01-29T00:45:58.957Z,12.80
2023-01-29T00:48:52.229Z,12.80
2023-01-29T00:52:05.052Z,12.40
2023-01-29T00:54:59.663Z,13.00
2023-01-29T00:57:53.635Z,13.00
2023-01-29T01:00:46.397Z,12.40
2023-01-29T01:03:42.245Z,11.60
2023-01-29T01:06:34.617Z,11.90
2023-01-29T01:09:45.957Z,11.70
2023-01-29T01:12:40.169Z,11.20
2023-01-29T01:15:36.601Z,12.10
2023-01-29T01:18:32.475Z,12.20
2023-01-29T01:21:25.235Z,11.60
2023-01-29T01:24:18.063Z,10.60
2023-01-29T01:27:03.991Z,11.10
2023-01-29T01:29:58.002Z,10.80
2023-01-29T01:32:50.984Z,10.70
2023-01-29T01:35:44.475Z,11.10
2023-01-29T01:38:37.397Z,10.60
2023-01-29T01:41:23.119Z,11.10
2023-01-29T01:44:45.948Z,11.60
2023-01-29T01:47:46.407Z,11.60
2023-01-29T01:50:37.507Z,11.60
2023-01-29T01:56:29.297Z,12.70
2023-01-29T01:59:23.987Z,13.00
2023-01-29T02:02:34.873Z,13.20
2023-01-29T02:05:46.064Z,13.90
2023-01-29T02:08:50.555Z,13.40
2023-01-29T02:11:43.396Z,13.60
2023-01-29T02:14:40.264Z,13.20
2023-01-29T02:17:33.569Z,14.00
2023-01-29T02:20:28.253Z,12.10
2023-01-29T02:23:41.101Z,11.90
2023-01-29T02:26:56.947Z,10.20
2023-01-29T02:30:03.478Z,10.90
2023-01-29T02:33:07.631Z,11.90
2023-01-29T02:36:10.736Z,12.60
2023-01-29T02:39:14.015Z,10.90
2023-01-29T02:42:18.675Z,12.70
2023-01-29T02:45:15.356Z,11.50
2023-01-29T02:48:13.487Z,11.70
2023-01-29T02:54:04.680Z,11.50
2023-01-29T02:57:00.816Z,12.50
2023-01-29T02:59:57.165Z,11.00
2023-01-29T03:02:49.354Z,11.20
2023-01-29T03:05:51.185Z,12.20
2023-01-29T03:08:45.751Z,9.80
2023-01-29T03:11:42.746Z,8.80
2023-01-29T03:14:54.290Z,9.20
2023-01-29T03:17:52.649Z,8.50
2023-01-29T03:20:49.333Z,8.40
2023-01-29T03:24:00.665Z,7.40
2023-01-29T03:27:11.645Z,7.00
2023-01-29T03:30:23.834Z,7.30
2023-01-29T03:33:17.407Z,8.20
2023-01-29T03:36:16.412Z,8.00
2023-01-29T03:39:11.573Z,8.20
2023-01-29T03:42:14.135Z,8.40
2023-01-29T03:45:05.478Z,7.90
2023-01-29T03:48:08.012Z,9.30
2023-01-29T03:51:10.190Z,8.60
2023-01-29T03:54:11.154Z,8.80
2023-01-29T03:57:15.553Z,8.50
2023-01-29T04:00:17.509Z,8.30
2023-01-29T04:03:18.379Z,8.30
2023-01-29T04:06:11.124Z,8.90
2023-01-29T04:09:09.356Z,8.40
2023-01-29T04:12:02.217Z,9.20
2023-01-29T04:14:56.419Z,8.80
2023-01-29T04:17:41.145Z,8.80
2023-01-29T04:20:38.578Z,8.90
2023-01-29T04:23:33.291Z,10.60
2023-01-29T04:26:57.309Z,8.90
2023-01-29T04:30:04.603Z,7.30
2023-01-29T04:33:11.837Z,7.60
2023-01-29T04:36:01.587Z,7.10
2023-01-29T04:39:12.016Z,7.50
2023-01-29T04:42:12.335Z,6.50
2023-01-29T04:45:07.463Z,8.20
2023-01-29T04:48:14.199Z,7.80
2023-01-29T04:51:13.851Z,7.40
2023-01-29T04:54:13.780Z,7.90
2023-01-29T04:57:09.696Z,7.70
2023-01-29T05:00:08.623Z,9.10
2023-01-29T05:03:02.973Z,8.00
2023-01-29T05:05:59.356Z,9.50
2023-01-29T05:08:53.782Z,8.60
2023-01-29T05:11:39.989Z,9.50
2023-01-29T05:14:35.425Z,9.20
2023-01-29T05:17:28.460Z,9.70
2023-01-29T05:20:21.921Z,9.70
2023-01-29T05:23:20.475Z,9.10
2023-01-29T05:26:25.587Z,9.30
2023-01-29T05:29:18.478Z,12.10
2023-01-29T05:32:11.234Z,10.50
2023-01-29T05:35:04.314Z,10.10
2023-01-29T05:37:57.672Z,10.70
2023-01-29T05:40:45.489Z,12.40
2023-01-29T05:43:38.247Z,12.90
2023-01-29T05:46:31.686Z,12.40
2023-01-29T05:49:25.185Z,11.50
2023-01-29T05:52:18.495Z,11.90
2023-01-29T05:55:12.783Z,10.60
2023-01-29T05:58:06.282Z,12.20
2023-01-29T06:00:52.699Z,13.00
2023-01-29T06:03:46.469Z,11.60
2023-01-29T06:06:39.237Z,11.40
2023-01-29T06:09:32.318Z,11.10
2023-01-29T06:12:25.093Z,12.00
2023-01-29T06:15:12.588Z,12.80
2023-01-29T06:18:05.425Z,13.40
2023-01-29T06:21:03.788Z,14.80
2023-01-29T06:23:56.986Z,13.80
2023-01-29T06:26:50.041Z,12.50
2023-01-29T06:29:42.819Z,10.50
2023-01-29T06:32:37.280Z,12.20
2023-01-29T06:35:30.111Z,11.20
2023-01-29T06:38:22.973Z,11.10
2023-01-29T06:41:17.287Z,11.40
2023-01-29T06:44:10.270Z,10.30
2023-01-29T06:47:03.378Z,11.80
2023-01-29T06:49:56.526Z,11.90
2023-01-29T06:52:47.967Z,12.20
2023-01-29T06:55:40.839Z,12.50
2023-01-29T06:58:34.443Z,12.20
2023-01-29T07:01:35.626Z,13.00
2023-01-29T07:04:22.106Z,11.70
2023-01-29T07:07:14.818Z,11.50
2023-01-29T07:10:08.952Z,8.90
2023-01-29T07:13:03.237Z,10.10
2023-01-29T07:15:46.243Z,11.10
2023-01-29T07:18:39.155Z,12.30
2023-01-29T07:21:32.440Z,12.90
2023-01-29T07:24:25.412Z,12.70
2023-01-29T07:27:10.860Z,12.90
2023-01-29T07:30:03.344Z,12.80
2023-01-29T07:32:56.211Z,14.70
2023-01-29T07:35:44.921Z,13.70
2023-01-29T07:38:28.723Z,14.40
2023-01-29T07:41:22.058Z,12.80
2023-01-29T07:44:15.160Z,12.50
2023-01-29T07:47:01.926Z,14.10
2023-01-29T07:49:54.695Z,13.60
2023-01-29T07:52:33.272Z,14.10
2023-01-29T07:55:17.520Z,12.60
2023-01-29T07:58:10.429Z,13.20
2023-01-29T08:00:57.343Z,13.60
2023-01-29T08:03:51.343Z,15.20
2023-01-29T08:06:43.980Z,13.70
2023-01-29T08:09:37.048Z,16.60
2023-01-29T08:12:29.916Z,15.10
2023-01-29T08:15:22.636Z,15.60
2023-01-29T08:18:14.784Z,17.00
2023-01-29T08:21:07.847Z,18.70
2023-01-29T08:23:54.636Z,17.40
2023-01-29T08:26:47.345Z,19.20
2023-01-29T08:29:40.037Z,21.30
2023-01-29T08:32:33.173Z,18.60
2023-01-29T08:35:26.203Z,14.90
2023-01-29T08:38:19.209Z,16.80
2023-01-29T08:41:12.003Z,19.70
2023-01-29T08:44:04.853Z,17.00
2023-01-29T08:46:56.551Z,13.70
2023-01-29T08:49:49.252Z,12.20
2023-01-29T08:52:29.357Z,12.80
2023-01-29T08:55:22.171Z,11.20
2023-01-29T08:58:16.397Z,9.00
2023-01-29T09:01:13.999Z,12.00
2023-01-29T09:04:07.481Z,11.70
2023-01-29T09:07:08.629Z,10.20
2023-01-29T09:10:15.482Z,10.20
2023-01-29T09:13:08.345Z,9.70
2023-01-29T09:16:03.825Z,10.00
2023-01-29T09:18:57.368Z,7.40
2023-01-29T09:21:50.788Z,8.10
2023-01-29T09:24:43.548Z,5.90
2023-01-29T09:27:36.579Z,24.20
2023-01-29T09:30:32.313Z,7.10
2023-01-29T09:33:26.271Z,7.40
2023-01-29T09:36:18.068Z,7.60
2023-01-29T09:39:04.984Z,9.20
2023-01-29T09:41:53.148Z,7.90
2023-01-29T09:45:01.729Z,10.10
2023-01-29T09:47:57.245Z,7.60
2023-01-29T09:50:53.023Z,6.30
2023-01-29T09:53:53.957Z,6.00
2023-01-29T09:56:49.899Z,5.60
2023-01-29T09:59:35.527Z,6.10
2023-01-29T10:02:52.592Z,5.70
2023-01-29T10:06:34.844Z,8.10
2023-01-29T10:10:02.349Z,8.80
2023-01-29T10:13:18.863Z,8.90
2023-01-29T10:16:19.943Z,8.50
2023-01-29T10:19:38.250Z,9.40
2023-01-29T10:22:47.351Z,7.40
2023-01-29T10:25:38.309Z,6.90
2023-01-29T10:28:36.615Z,6.90
2023-01-29T10:34:31.366Z,8.30
2023-01-29T10:37:32.514Z,8.00
2023-01-29T10:40:28.736Z,9.00
2023-01-29T10:43:19.328Z,10.40
2023-01-29T10:46:29.552Z,10.90
2023-01-29T10:49:58.897Z,11.70
2023-01-29T10:53:20.096Z,11.70
2023-01-29T10:56:40.440Z,12.40
2023-01-29T10:59:53.454Z,10.20
2023-01-29T11:02:51.827Z,11.40
2023-01-29T11:05:51.729Z,10.20
2023-01-29T11:08:49.764Z,10.40
2023-01-29T11:11:49.164Z,10.70
2023-01-29T11:14:47.241Z,9.30
2023-01-29T11:17:40.840Z,10.40
2023-01-29T11:20:32.048Z,11.40
2023-01-29T11:23:31.413Z,12.80
2023-01-29T11:26:25.045Z,13.10
2023-01-29T11:29:39.052Z,9.80
2023-01-29T11:32:36.775Z,11.30
2023-01-29T11:35:30.767Z,15.10
2023-01-29T11:38:27.730Z,21.60
2023-01-29T11:41:22.546Z,15.50
2023-01-29T11:44:31.822Z,12.50
2023-01-29T11:47:28.676Z,12.30
2023-01-29T11:50:26.297Z,10.90
2023-01-29T11:53:35.459Z,12.40
2023-01-29T11:56:31.268Z,14.00
2023-01-29T11:59:49.046Z,21.60
2023-01-29T12:02:47.261Z,18.90
2023-01-29T12:05:42.191Z,16.60
2023-01-29T12:08:39.906Z,13.10
2023-01-29T12:11:34.583Z,13.10
2023-01-29T12:14:33.648Z,11.70
2023-01-29T12:17:29.128Z,9.90
2023-01-29T12:20:20.108Z,10.90
2023-01-29T12:23:30.994Z,12.40
2023-01-29T12:26:32.437Z,10.10
2023-01-29T12:29:32.003Z,9.70
2023-01-29T12:32:34.232Z,9.80
2023-01-29T12:35:25.643Z,9.90
2023-01-29T12:38:22.003Z,9.70
2023-01-29T12:41:45.098Z,8.90
2023-01-29T12:44:42.383Z,8.90
2023-01-29T12:47:39.501Z,10.00
2023-01-29T12:50:29.079Z,10.30
2023-01-29T12:53:30.992Z,10.10
2023-01-29T12:56:33.151Z,10.20
2023-01-29T12:59:29.382Z,10.70
2023-01-29T13:02:32.183Z,9.00
2023-01-29T13:05:29.665Z,8.10
2023-01-29T13:08:26.351Z,10.00
2023-01-29T13:11:23.715Z,9.00
2023-01-29T13:14:15.697Z,9.80
2023-01-29T13:17:09.110Z,9.00
2023-01-29T13:20:06.739Z,10.10
2023-01-29T13:23:06.130Z,9.80
2023-01-29T13:25:55.387Z,9.10
2023-01-29T13:28:46.191Z,9.50
2023-01-29T13:31:46.642Z,8.30
2023-01-29T13:34:28.514Z,8.80
2023-01-29T13:37:20.143Z,8.60
2023-01-29T13:40:04.166Z,9.60
2023-01-29T13:42:53.246Z,10.10
2023-01-29T13:45:48.691Z,9.70
2023-01-29T13:48:47.302Z,10.90
2023-01-29T13:51:41.424Z,9.80
2023-01-29T13:54:34.710Z,8.70
2023-01-29T13:57:54.782Z,9.70
2023-01-29T14:00:52.848Z,11.70
2023-01-29T14:04:03.757Z,11.80
2023-01-29T14:06:59.996Z,11.40
2023-01-29T14:10:14.802Z,13.00
2023-01-29T14:13:32.202Z,15.70
2023-01-29T14:16:37.678Z,11.50
2023-01-29T14:19:25.767Z,15.30
2023-01-29T14:22:24.993Z,12.30
2023-01-29T14:25:22.924Z,15.00
2023-01-29T14:28:21.600Z,15.70
2023-01-29T14:31:07.712Z,17.90
2023-01-29T14:33:50.701Z,15.30
2023-01-29T14:36:46.618Z,14.00
2023-01-29T14:39:47.511Z,15.20
2023-01-29T14:42:50.251Z,20.90
2023-01-29T14:45:32.014Z,12.60
2023-01-29T14:48:48.708Z,13.30
2023-01-29T14:51:46.753Z,14.00
2023-01-29T14:54:30.639Z,13.30
2023-01-29T14:57:24.959Z,11.60
2023-01-29T15:00:17.347Z,13.40
2023-01-29T15:03:23.101Z,13.20
2023-01-29T15:06:24.536Z,12.40
2023-01-29T15:09:03.876Z,15.20
2023-01-29T15:11:59.013Z,14.20
2023-01-29T15:14:53.681Z,15.90
2023-01-29T15:17:32.399Z,14.80
2023-01-29T15:20:35.291Z,14.00
2023-01-29T15:23:27.661Z,16.00
2023-01-29T15:26:27.019Z,16.20
2023-01-29T15:29:28.314Z,16.10
2023-01-29T15:32:29.866Z,17.50
2023-01-29T15:35:31.575Z,15.60
2023-01-29T15:38:26.422Z,15.90
2023-01-29T15:41:23.836Z,15.90
2023-01-29T15:44:19.642Z,16.00
2023-01-29T15:47:14.495Z,17.40
2023-01-29T15:49:52.241Z,17.60
2023-01-29T15:52:36.421Z,19.00
2023-01-29T15:55:16.316Z,20.10
2023-01-29T15:57:54.380Z,22.30
2023-01-29T16:00:54.854Z,22.50
2023-01-29T16:03:30.846Z,20.30
2023-01-29T16:06:17.131Z,19.30
2023-01-29T16:08:53.545Z,24.50
2023-01-29T16:11:49.243Z,22.80
2023-01-29T16:14:44.874Z,18.50
2023-01-29T16:17:41.948Z,20.70
2023-01-29T16:20:42.624Z,20.40
2023-01-29T16:23:46.356Z,20.70
2023-01-29T16:26:36.526Z,20.70
2023-01-29T16:29:34.447Z,19.50
2023-01-29T16:35:19.895Z,21.80
2023-01-29T16:38:29.394Z,21.00
2023-01-29T16:41:33.705Z,20.30
2023-01-29T16:44:37.690Z,19.20
2023-01-29T16:47:25.940Z,21.80
2023-01-29T16:50:40.559Z,19.90
2023-01-29T16:53:34.844Z,19.40
2023-01-29T16:56:30.161Z,21.70
2023-01-29T16:59:28.399Z,21.10
2023-01-29T17:05:10.970Z,21.10
2023-01-29T17:07:56.738Z,21.00
2023-01-29T17:10:51.710Z,20.50
2023-01-29T17:13:39.904Z,21.40
2023-01-29T17:16:35.300Z,22.70
2023-01-29T17:19:30.179Z,24.40
2023-01-29T17:22:22.931Z,21.90
2023-01-29T17:25:18.921Z,20.10
2023-01-29T17:28:16.177Z,20.30
2023-01-29T17:31:06.623Z,20.30
2023-01-29T17:36:51.358Z,22.50
2023-01-29T17:39:34.683Z,25.30
2023-01-29T17:42:28.890Z,27.20
2023-01-29T17:45:23.796Z,26.60
2023-01-29T17:48:19.606Z,23.80
2023-01-29T17:51:16.681Z,23.70
2023-01-29T17:54:09.603Z,25.20
2023-01-29T17:57:05.208Z,20.90
2023-01-29T17:59:58.358Z,22.40
2023-01-29T18:02:36.665Z,22.10
2023-01-29T18:05:30.209Z,20.90
2023-01-29T18:08:27.836Z,20.30
2023-01-29T18:11:19.461Z,21.30
2023-01-29T18:14:14.138Z,22.50
2023-01-29T18:17:07.592Z,25.10
2023-01-29T18:19:53.386Z,29.50
2023-01-29T18:22:46.891Z,23.50
2023-01-29T18:25:29.756Z,24.40
2023-01-29T18:28:23.187Z,25.00
2023-01-29T18:31:16.207Z,22.50
2023-01-29T18:34:03.052Z,23.00
2023-01-29T18:36:56.017Z,22.30
2023-01-29T18:39:48.896Z,22.60
2023-01-29T18:42:41.915Z,22.30
2023-01-29T18:45:27.476Z,21.00
2023-01-29T18:48:14.273Z,22.40
2023-01-29T18:51:08.928Z,22.10
2023-01-29T18:54:02.029Z,23.50
2023-01-29T18:57:08.717Z,23.80
2023-01-29T18:59:49.409Z,23.80
2023-01-29T19:02:43.166Z,23.40
2023-01-29T19:05:17.116Z,23.90
2023-01-29T19:08:10.728Z,25.70
2023-01-29T19:11:08.526Z,25.90
2023-01-29T19:14:01.339Z,22.90
2023-01-29T19:16:47.195Z,22.80
2023-01-29T19:19:40.628Z,25.00
2023-01-29T19:22:24.637Z,23.60
2023-01-29T19:25:19.694Z,22.60
2023-01-29T19:28:12.805Z,23.40
2023-01-29T19:31:01.318Z,24.30
2023-01-29T19:33:54.811Z,24.00
2023-01-29T19:36:46.381Z,22.90
2023-01-29T19:39:39.188Z,21.70
2023-01-29T19:42:25.112Z,24.20
2023-01-29T19:45:18.439Z,23.20
2023-01-29T19:48:30.372Z,22.30
2023-01-29T19:51:24.801Z,23.40
2023-01-29T19:54:10.357Z,22.10
2023-01-29T19:57:04.474Z,22.20
2023-01-29T19:59:45.839Z,21.20
2023-01-29T20:02:39.042Z,21.60
2023-01-29T20:05:37.552Z,21.10
2023-01-29T20:08:30.339Z,20.70
2023-01-29T20:11:24.928Z,19.00
2023-01-29T20:14:20.425Z,21.40
2023-01-29T20:17:13.187Z,20.00
2023-01-29T20:20:07.037Z,20.20
2023-01-29T20:23:01.557Z,19.90
2023-01-29T20:25:48.107Z,21.30
2023-01-29T20:28:31.059Z,20.90
2023-01-29T20:31:22.695Z,20.70
2023-01-29T20:34:18.414Z,22.50
2023-01-29T20:37:11.161Z,21.40
2023-01-29T20:40:02.913Z,20.10
2023-01-29T20:42:54.533Z,20.70
2023-01-29T20:45:47.277Z,18.10
2023-01-29T20:48:42.138Z,18.00
2023-01-29T20:51:23.774Z,18.80
2023-01-29T20:54:12.616Z,19.30
2023-01-29T20:57:05.532Z,19.40
2023-01-29T21:00:00.145Z,21.70
2023-01-29T21:02:52.913Z,22.80
2023-01-29T21:05:45.674Z,21.40
2023-01-29T21:08:38.885Z,21.70
2023-01-29T21:11:33.944Z,20.80
2023-01-29T21:14:26.713Z,19.50
2023-01-29T21:17:20.161Z,19.50
2023-01-29T21:20:15.177Z,21.60
2023-01-29T21:23:05.323Z,19.60
2023-01-29T21:26:05.277Z,21.10
2023-01-29T21:28:58.566Z,20.70
2023-01-29T21:31:51.447Z,20.20
2023-01-29T21:34:44.775Z,20.60
2023-01-29T21:37:20.541Z,20.80
2023-01-29T21:40:03.575Z,20.60
2023-01-29T21:43:16.145Z,19.00
2023-01-29T21:46:12.621Z,18.90
2023-01-29T21:49:05.566Z,19.40
2023-01-29T21:51:59.479Z,18.10
2023-01-29T21:54:52.268Z,19.80
2023-01-29T21:57:47.325Z,20.10
2023-01-29T22:00:40.083Z,20.90
2023-01-29T22:03:34.674Z,20.40
2023-01-29T22:06:27.513Z,19.90
2023-01-29T22:09:20.555Z,20.70
2023-01-29T22:12:13.643Z,19.20
2023-01-29T22:15:00.256Z,18.70
2023-01-29T22:17:53.072Z,18.70
2023-01-29T22:20:45.840Z,18.40
2023-01-29T22:23:21.417Z,17.60
2023-01-29T22:26:14.280Z,17.60
2023-01-29T22:29:05.879Z,17.00
2023-01-29T22:31:58.829Z,18.40
2023-01-29T22:34:51.792Z,17.80
2023-01-29T22:37:44.887Z,18.90
2023-01-29T22:40:37.955Z,18.80
2023-01-29T22:43:19.403Z,19.60
2023-01-29T22:46:14.900Z,19.00
2023-01-29T22:49:07.915Z,20.00
2023-01-29T22:52:11.605Z,17.50
2023-01-29T22:54:54.732Z,17.00
2023-01-29T22:57:51.402Z,17.80
2023-01-29T23:00:44.151Z,16.70
2023-01-29T23:03:37.258Z,17.30
2023-01-29T23:06:30.087Z,16.30
2023-01-29T23:09:22.905Z,18.30
2023-01-29T23:12:16.198Z,17.30
2023-01-29T23:15:10.292Z,18.20
2023-01-29T23:18:03.852Z,18.40
2023-01-29T23:21:01.372Z,18.40
2023-01-29T23:23:55.518Z,19.50
2023-01-29T23:27:06.320Z,18.50
2023-01-29T23:29:59.059Z,18.80
2023-01-29T23:32:51.792Z,19.40
2023-01-29T23:35:40.751Z,19.40
2023-01-29T23:38:26.533Z,18.20
2023-01-29T23:41:19.467Z,19.20
2023-01-29T23:44:12.853Z,18.60
2023-01-29T23:47:05.710Z,18.00
2023-01-29T23:50:00.857Z,18.30
2023-01-29T23:52:53.606Z,18.80
2023-01-29T23:55:56.446Z,17.30
2023-01-29T23:58:49.380Z,17.40
